Time;durP1;ratioP1;P1;durP2;ratioP2;P2;SDS_P1;SDS_P2;PMS_P1;PMS_P2;Temp;Humidity;BMP_temperature;BMP_pressure;BME280_temperature;BME280_humidity;BME280_pressure;Samples;Min_cycle;Max_cycle;Signal;HPM_P1;HPM_P2
2024/03/17 00:02:23;;;;;;;11.07;5.45;;;;;;;5.55;100.00;99619.13;5052736;28;20025;-58
2024/03/17 00:04:49;;;;;;;10.18;5.35;;;;;;;5.47;100.00;99622.56;5049991;28;20028;-59
2024/03/17 00:07:14;;;;;;;10.57;6.30;;;;;;;5.46;100.00;99628.09;5057556;28;20028;-58
2024/03/17 00:09:41;;;;;;;10.48;6.32;;;;;;;5.33;100.00;99627.63;5055909;28;20029;-59
2024/03/17 00:12:07;;;;;;;10.02;5.60;;;;;;;5.25;100.00;99628.38;5052292;28;20025;-58
2024/03/17 00:14:34;;;;;;;12.93;6.50;;;;;;;5.13;100.00;99622.34;5052896;28;20033;-59
2024/03/17 00:17:01;;;;;;;44.92;6.13;;;;;;;5.05;100.00;99622.22;5052733;28;20028;-59
2024/03/17 00:19:26;;;;;;;13.18;5.57;;;;;;;5.00;100.00;99622.69;5050876;28;20020;-58
2024/03/17 00:21:52;;;;;;;8.95;5.32;;;;;;;4.98;100.00;99618.47;5054187;28;20028;-60
2024/03/17 00:24:18;;;;;;;13.90;5.85;;;;;;;4.97;100.00;99622.97;5049038;28;20043;-59
2024/03/17 00:26:44;;;;;;;16.73;6.45;;;;;;;4.98;100.00;99624.66;5053755;28;20029;-58
2024/03/17 00:29:10;;;;;;;12.57;7.00;;;;;;;5.01;100.00;99621.69;5053016;28;20025;-59
2024/03/17 00:31:35;;;;;;;17.77;6.65;;;;;;;4.99;100.00;99621.00;5049353;28;20052;-60
2024/03/17 00:34:01;;;;;;;41.22;8.32;;;;;;;4.99;100.00;99615.63;5051995;28;20079;-60
2024/03/17 00:36:26;;;;;;;22.05;7.20;;;;;;;4.89;100.00;99625.53;5050914;28;20083;-59
2024/03/17 00:38:52;;;;;;;16.58;8.00;;;;;;;4.88;100.00;99626.53;5053353;28;20111;-58
2024/03/17 00:41:19;;;;;;;17.13;7.05;;;;;;;4.86;100.00;99615.13;5050358;28;20032;-56
2024/03/17 00:43:44;;;;;;;14.18;7.60;;;;;;;4.83;100.00;99621.63;5054099;28;20464;-59
2024/03/17 00:46:10;;;;;;;13.07;7.70;;;;;;;4.93;100.00;99620.75;5048546;28;20020;-58
2024/03/17 00:48:35;;;;;;;17.45;8.35;;;;;;;4.84;100.00;99612.56;5049110;28;20032;-57
2024/03/17 00:51:00;;;;;;;15.02;7.47;;;;;;;4.85;100.00;99605.41;5052600;28;20388;-57
2024/03/17 00:53:26;;;;;;;16.13;6.78;;;;;;;4.88;100.00;99604.25;5054185;28;20042;-57
2024/03/17 00:55:52;;;;;;;19.02;7.13;;;;;;;4.89;100.00;99604.09;5055199;28;20025;-57
2024/03/17 00:58:20;;;;;;;18.23;7.20;;;;;;;4.87;100.00;99599.88;5047859;28;20012;-58
2024/03/17 01:00:47;;;;;;;12.75;6.22;;;;;;;4.86;100.00;99599.03;5051537;28;20029;-57
2024/03/17 01:03:14;;;;;;;13.23;6.10;;;;;;;4.86;100.00;99595.50;5049027;28;20025;-59
2024/03/17 01:05:44;;;;;;;16.92;6.10;;;;;;;4.83;100.00;99599.31;5050529;28;20021;-58
2024/03/17 01:08:13;;;;;;;21.02;6.45;;;;;;;4.76;100.00;99591.00;5050620;28;20052;-59
2024/03/17 01:10:40;;;;;;;17.15;6.57;;;;;;;4.76;100.00;99588.34;5052212;28;20392;-58
2024/03/17 01:13:07;;;;;;;12.20;5.80;;;;;;;4.80;100.00;99580.88;5054980;28;20478;-57
2024/03/17 01:15:33;;;;;;;14.82;6.90;;;;;;;4.84;100.00;99591.13;5049969;28;20029;-59
2024/03/17 01:17:59;;;;;;;14.10;5.93;;;;;;;4.82;100.00;99578.84;5050515;28;20330;-59
2024/03/17 01:20:25;;;;;;;13.25;6.20;;;;;;;4.72;100.00;99583.44;5050057;28;20474;-59
2024/03/17 01:22:51;;;;;;;9.23;5.13;;;;;;;4.66;100.00;99592.03;5051496;28;20502;-58
2024/03/17 01:25:16;;;;;;;10.07;5.10;;;;;;;4.79;100.00;99580.03;5054937;28;20100;-59
2024/03/17 01:27:43;;;;;;;10.15;5.10;;;;;;;4.70;100.00;99572.84;5053502;28;20025;-59
2024/03/17 01:30:10;;;;;;;9.98;5.32;;;;;;;4.71;100.00;99574.53;5052808;28;20309;-57
2024/03/17 01:32:35;;;;;;;9.75;5.50;;;;;;;4.70;100.00;99570.16;5054001;28;20034;-57
2024/03/17 01:35:01;;;;;;;10.07;5.20;;;;;;;4.72;100.00;99570.03;5052005;28;20029;-57
2024/03/17 01:37:26;;;;;;;11.23;5.75;;;;;;;4.74;100.00;99562.66;5049816;28;20053;-57
2024/03/17 01:39:52;;;;;;;10.45;5.75;;;;;;;4.69;100.00;99564.94;5051039;28;20037;-59
2024/03/17 01:42:17;;;;;;;10.45;5.80;;;;;;;4.61;100.00;99554.94;5057666;28;20102;-58
2024/03/17 01:44:43;;;;;;;14.25;6.20;;;;;;;4.59;100.00;99565.00;5052212;28;20111;-59
2024/03/17 01:47:09;;;;;;;12.55;6.45;;;;;;;4.60;100.00;99556.78;5051407;28;20041;-58
2024/03/17 01:49:35;;;;;;;14.93;6.13;;;;;;;4.71;100.00;99560.28;5049083;28;20439;-57
2024/03/17 01:52:02;;;;;;;13.90;6.75;;;;;;;4.73;100.00;99561.00;5049684;28;20107;-57
2024/03/17 01:54:27;;;;;;;14.35;6.75;;;;;;;4.80;100.00;99567.47;5056976;28;20037;-58
2024/03/17 01:56:53;;;;;;;15.25;7.35;;;;;;;4.85;100.00;99557.13;5052253;28;20029;-59
2024/03/17 01:59:18;;;;;;;14.57;7.80;;;;;;;4.89;100.00;99558.50;5053982;28;20017;-57
2024/03/17 02:01:44;;;;;;;12.07;6.43;;;;;;;4.95;100.00;99560.63;5052085;28;20029;-59
2024/03/17 02:04:09;;;;;;;12.50;6.88;;;;;;;4.96;100.00;99542.69;5048668;28;20523;-57
2024/03/17 02:06:54;;;;;;;14.43;6.72;;;;;;;4.99;100.00;99543.22;5048985;28;20353;-58
2024/03/17 02:09:21;;;;;;;13.40;7.38;;;;;;;4.94;100.00;99542.81;5054822;28;20032;-59
2024/03/17 02:11:48;;;;;;;9.95;6.32;;;;;;;4.86;100.00;99532.00;5054588;28;20103;-57
2024/03/17 02:14:14;;;;;;;13.82;6.38;;;;;;;4.85;100.00;99546.41;5054338;28;20456;-59
2024/03/17 02:16:40;;;;;;;12.57;6.40;;;;;;;4.84;100.00;99544.69;5043844;28;20053;-59
2024/03/17 02:19:06;;;;;;;16.52;6.18;;;;;;;4.82;100.00;99539.50;5046107;28;20029;-58
2024/03/17 02:21:32;;;;;;;12.45;7.10;;;;;;;4.81;100.00;99534.28;5050625;28;20072;-58
2024/03/17 02:23:57;;;;;;;25.60;6.88;;;;;;;4.67;100.00;99529.41;5056584;28;20017;-59
2024/03/17 02:26:26;;;;;;;15.93;6.43;;;;;;;4.54;100.00;99525.22;5052133;28;20064;-59
2024/03/17 02:28:51;;;;;;;19.98;6.63;;;;;;;4.51;100.00;99520.16;5054247;28;20029;-57
2024/03/17 02:31:17;;;;;;;16.63;7.88;;;;;;;4.54;100.00;99530.59;5051405;28;20103;-59
2024/03/17 02:33:44;;;;;;;17.40;7.43;;;;;;;4.60;100.00;99524.63;5054336;28;20020;-59
2024/03/17 02:36:11;;;;;;;14.55;6.93;;;;;;;4.55;100.00;99526.91;5055929;28;20024;-58
2024/03/17 02:41:21;;;;;;;24.90;6.90;;;;;;;4.61;100.00;99518.31;5052758;28;20040;-58
2024/03/17 02:43:47;;;;;;;20.23;6.13;;;;;;;4.71;100.00;99528.13;5056552;28;20029;-59
2024/03/17 02:46:18;;;;;;;13.65;5.72;;;;;;;4.90;100.00;99521.81;5049675;28;20029;-58
2024/03/17 02:48:47;;;;;;;12.98;5.70;;;;;;;4.94;100.00;99531.25;5049970;28;20021;-58
2024/03/17 02:51:17;;;;;;;20.08;6.15;;;;;;;5.00;100.00;99515.44;5055927;28;20029;-58
2024/03/17 02:53:47;;;;;;;11.02;5.53;;;;;;;4.96;100.00;99503.31;5057791;28;20472;-58
2024/03/17 02:56:16;;;;;;;13.77;5.15;;;;;;;4.92;100.00;99511.78;5050622;28;20035;-58
2024/03/17 02:58:43;;;;;;;9.85;5.18;;;;;;;4.81;100.00;99504.78;5048731;28;20472;-59
2024/03/17 03:01:11;;;;;;;18.90;6.00;;;;;;;4.78;100.00;99510.47;5054668;28;20067;-57
2024/03/17 03:03:37;;;;;;;11.98;5.65;;;;;;;4.71;100.00;99507.50;5053047;28;20528;-58
2024/03/17 03:06:09;;;;;;;13.40;5.70;;;;;;;4.62;100.00;99503.06;5054312;28;20116;-59
2024/03/17 03:08:41;;;;;;;15.38;6.60;;;;;;;4.53;100.00;99506.59;5055097;28;20028;-58
2024/03/17 03:11:12;;;;;;;12.30;6.85;;;;;;;4.45;100.00;99509.19;5056138;28;20104;-57
2024/03/17 03:13:42;;;;;;;15.23;7.20;;;;;;;4.36;100.00;99500.19;5058291;28;20020;-59
2024/03/17 03:16:09;;;;;;;19.23;8.10;;;;;;;4.34;100.00;99507.53;5052746;28;20021;-59
2024/03/17 03:18:36;;;;;;;22.35;7.75;;;;;;;4.30;100.00;99514.19;5049709;28;20021;-58
2024/03/17 03:21:01;;;;;;;31.45;7.65;;;;;;;4.26;100.00;99510.94;5057334;28;20036;-57
2024/03/17 03:26:43;;;;;;;42.92;9.57;;;;;;;4.13;100.00;99489.00;5072984;28;20052;-75
2024/03/17 03:29:10;;;;;;;31.08;8.80;;;;;;;4.08;100.00;99502.81;5075960;28;20062;-78
2024/03/17 03:31:36;;;;;;;23.63;8.52;;;;;;;4.11;100.00;99510.56;5076277;28;20037;-76
2024/03/17 03:34:02;;;;;;;24.45;8.27;;;;;;;3.85;100.00;99474.66;5064461;28;20048;-76
2024/03/17 03:36:28;;;;;;;20.35;7.10;;;;;;;3.99;100.00;99509.03;5059962;28;20021;-75
2024/03/17 03:38:53;;;;;;;23.38;7.40;;;;;;;3.98;100.00;99506.50;5079083;28;20081;-76
2024/03/17 03:41:19;;;;;;;17.63;6.05;;;;;;;3.92;100.00;99500.72;5078510;28;20055;-76
2024/03/17 03:43:46;;;;;;;16.15;5.90;;;;;;;3.79;100.00;99494.84;5081754;28;20035;-76
2024/03/17 03:46:12;;;;;;;19.77;5.60;;;;;;;3.77;100.00;99477.22;5080356;28;20024;-76
2024/03/17 03:48:37;;;;;;;14.43;5.22;;;;;;;3.85;100.00;99490.72;5070203;28;20019;-76
2024/03/17 03:51:04;;;;;;;13.98;5.25;;;;;;;3.88;100.00;99490.47;5070107;28;20024;-76
2024/03/17 03:53:30;;;;;;;9.48;4.93;;;;;;;3.80;100.00;99493.88;5082770;28;20032;-76
2024/03/17 03:55:55;;;;;;;9.77;4.63;;;;;;;3.68;100.00;99487.81;5060414;28;20048;-76
2024/03/17 03:58:21;;;;;;;8.27;4.35;;;;;;;3.67;100.00;99478.09;5071716;28;20037;-77
2024/03/17 04:00:46;;;;;;;8.30;4.05;;;;;;;3.76;100.00;99487.09;5065672;28;20072;-77
2024/03/17 04:03:11;;;;;;;6.18;3.55;;;;;;;3.61;100.00;99497.38;5055138;28;20097;-77
2024/03/17 04:05:36;;;;;;;9.90;4.03;;;;;;;3.47;100.00;99477.25;5051141;28;20024;-77
2024/03/17 04:08:02;;;;;;;7.65;3.30;;;;;;;3.50;100.00;99495.69;5049516;28;20031;-77
2024/03/17 04:10:27;;;;;;;7.90;3.20;;;;;;;3.54;100.00;99503.44;5071071;28;20028;-76
2024/03/17 04:12:53;;;;;;;7.97;3.63;;;;;;;3.51;100.00;99510.78;5061612;28;20025;-77
2024/03/17 04:15:19;;;;;;;12.63;3.90;;;;;;;3.35;100.00;99475.69;5053484;28;20029;-77
2024/03/17 04:17:45;;;;;;;13.27;5.63;;;;;;;3.43;100.00;99485.69;5057430;28;20048;-77
2024/03/17 04:20:13;;;;;;;28.65;7.18;;;;;;;3.47;100.00;99493.31;5058031;28;20021;-77
2024/03/17 04:22:39;;;;;;;13.37;6.97;;;;;;;3.48;100.00;99508.41;5046366;28;20064;-76
2024/03/17 04:25:04;;;;;;;41.53;8.18;;;;;;;3.54;100.00;99506.09;5074246;28;20316;-77
2024/03/17 04:27:30;;;;;;;18.15;7.75;;;;;;;3.41;100.00;99485.84;5051643;28;20055;-77
2024/03/17 04:29:57;;;;;;;16.20;7.90;;;;;;;3.46;100.00;99486.28;5060843;28;20039;-76
2024/03/17 04:32:23;;;;;;;16.83;6.35;;;;;;;3.53;100.00;99499.09;5060539;28;20029;-77
2024/03/17 04:34:49;;;;;;;26.27;6.60;;;;;;;3.61;100.00;99510.75;5070458;28;20078;-77
2024/03/17 04:37:14;;;;;;;11.55;6.13;;;;;;;3.57;100.00;99504.00;5061608;28;20024;-77
2024/03/17 04:39:44;;;;;;;11.18;5.80;;;;;;;3.63;100.00;99500.75;5049163;28;20239;-76
2024/03/17 04:42:14;;;;;;;13.63;5.70;;;;;;;3.47;100.00;99484.44;5065284;28;20060;-76
2024/03/17 04:44:40;;;;;;;15.55;5.32;;;;;;;3.65;100.00;99497.97;5050301;28;20017;-77
2024/03/17 04:47:06;;;;;;;11.07;5.28;;;;;;;3.69;100.00;99510.06;5060798;28;20103;-77
2024/03/17 04:50:08;;;;;;;10.75;5.47;;;;;;;3.73;100.00;99504.28;5061354;28;20024;-76
2024/03/17 04:53:07;;;;;;;11.77;4.43;;;;;;;3.74;100.00;99505.97;5048734;28;20043;-76
2024/03/17 04:55:47;;;;;;;7.82;4.32;;;;;;;3.64;100.00;99505.16;5048414;28;20048;-77
2024/03/17 04:58:19;;;;;;;6.60;3.95;;;;;;;3.43;100.00;99469.66;5028502;28;20049;-77
2024/03/17 05:01:24;;;;;;;9.63;4.30;;;;;;;3.57;100.00;99505.84;5046787;28;20028;-77
2024/03/17 05:05:11;;;;;;;6.68;3.47;;;;;;;3.48;100.00;99497.69;5065265;28;20017;-76
2024/03/17 05:08:06;;;;;;;7.18;4.00;;;;;;;3.46;100.00;99501.50;5057590;28;20078;-77
2024/03/17 05:10:43;;;;;;;7.28;3.78;;;;;;;3.35;100.00;99514.97;5050968;28;20033;-76
2024/03/17 05:14:31;;;;;;;11.18;3.83;;;;;;;3.26;100.00;99506.81;4981411;28;20079;-77
2024/03/17 05:20:33;;;;;;;14.90;4.05;;;;;;;3.20;100.00;99477.13;4990975;28;20392;-78
2024/03/17 05:23:43;;;;;;;8.95;3.90;;;;;;;3.11;100.00;99494.00;4975094;28;20047;-77
2024/03/17 05:26:18;;;;;;;8.82;4.13;;;;;;;2.92;100.00;99473.44;4962346;28;21303;-77
2024/03/17 05:28:57;;;;;;;7.22;3.72;;;;;;;3.06;100.00;99497.06;4975486;28;20115;-77
2024/03/17 05:31:35;;;;;;;9.82;3.80;;;;;;;2.96;100.00;99488.19;4981067;28;20416;-78
2024/03/17 05:34:32;;;;;;;6.80;3.80;;;;;;;2.88;100.00;99502.22;4902828;29;20049;-77
2024/03/17 05:37:33;;;;;;;10.82;3.90;;;;;;;2.97;100.00;99505.94;4904213;29;20153;-78
2024/03/17 05:40:41;;;;;;;8.02;4.40;;;;;;;2.96;100.00;99496.22;4903680;29;20346;-77
2024/03/17 05:43:30;;;;;;;8.48;4.32;;;;;;;3.05;100.00;99503.41;4906108;29;20060;-78
2024/03/17 05:46:31;;;;;;;7.72;4.30;;;;;;;3.03;100.00;99505.38;4892036;29;20036;-77
2024/03/17 05:48:56;;;;;;;11.85;4.85;;;;;;;2.99;100.00;99504.81;5062669;22;20056;-79
2024/03/17 05:51:25;;;;;;;10.57;4.82;;;;;;;3.01;100.00;99491.28;5103496;22;20027;-58
2024/03/17 05:53:50;;;;;;;12.68;5.60;;;;;;;3.19;100.00;99507.50;5067052;28;20033;-58
2024/03/17 05:56:16;;;;;;;10.70;5.60;;;;;;;3.21;100.00;99509.06;5086227;28;20029;-58
2024/03/17 05:58:42;;;;;;;7.70;4.68;;;;;;;3.21;100.00;99501.03;5083919;28;20058;-58
2024/03/17 06:01:08;;;;;;;9.52;5.30;;;;;;;3.28;100.00;99507.53;5091914;28;20024;-58
2024/03/17 06:03:35;;;;;;;7.95;4.63;;;;;;;3.34;100.00;99505.28;5084917;28;20592;-58
2024/03/17 06:06:01;;;;;;;7.35;4.70;;;;;;;3.39;100.00;99500.34;5093891;28;20047;-60
2024/03/17 06:08:27;;;;;;;7.60;3.97;;;;;;;3.53;100.00;99497.25;5075229;28;20024;-60
2024/03/17 06:10:52;;;;;;;24.25;3.63;;;;;;;3.62;100.00;99482.19;5085812;28;20028;-64
2024/03/17 06:13:18;;;;;;;9.85;5.03;;;;;;;4.73;100.00;99502.00;5092111;28;20062;-64
2024/03/17 06:15:44;;;;;;;11.93;6.18;;;;;;;6.57;100.00;99483.47;5085121;28;20042;-64
2024/03/17 06:18:13;;;;;;;15.05;4.95;;;;;;;8.49;100.00;99446.44;5094278;28;20138;-64
2024/03/17 06:20:43;;;;;;;7.95;3.92;;;;;;;9.74;100.00;99432.81;5083844;28;20036;-64
2024/03/17 06:23:12;;;;;;;4.88;3.40;;;;;;;10.80;100.00;99430.84;5088943;28;20024;-65
2024/03/17 06:25:48;;;;;;;4.72;2.97;;;;;;;12.29;100.00;99423.72;5090157;28;20028;-64
2024/03/17 06:28:16;;;;;;;3.47;2.47;;;;;;;12.76;100.00;99415.81;5086885;28;20027;-59
2024/03/17 06:30:48;;;;;;;2.78;1.85;;;;;;;13.72;100.00;99419.19;5096872;28;20106;-56
2024/03/17 06:33:15;;;;;;;3.75;2.47;;;;;;;14.39;100.00;99410.97;5078963;28;20127;-57
2024/03/17 06:35:41;;;;;;;4.63;2.90;;;;;;;14.87;100.00;99402.47;5098112;28;20027;-57
2024/03/17 06:38:09;;;;;;;5.70;2.83;;;;;;;14.97;100.00;99408.28;5110633;28;20050;-57
2024/03/17 06:40:38;;;;;;;3.50;2.47;;;;;;;15.65;96.64;99402.19;5102523;28;20079;-56
2024/03/17 06:43:06;;;;;;;3.88;2.15;;;;;;;16.33;90.33;99393.19;5097227;28;20032;-58
2024/03/17 06:45:32;;;;;;;6.15;2.22;;;;;;;17.08;80.52;99397.56;5090243;28;20050;-56
2024/03/17 06:47:58;;;;;;;3.75;1.90;;;;;;;17.02;76.17;99391.13;5076304;28;20031;-57
2024/03/17 06:50:24;;;;;;;2.85;1.92;;;;;;;18.53;70.36;99395.44;5089896;28;20085;-61
2024/03/17 06:52:49;;;;;;;3.17;1.80;;;;;;;19.60;63.94;99399.47;5093350;28;20087;-66
2024/03/17 06:55:15;;;;;;;1.83;1.40;;;;;;;19.47;62.53;99390.47;5091643;28;20030;-62
2024/03/17 06:57:46;;;;;;;1.30;1.20;;;;;;;19.83;61.81;99393.88;5071882;28;20017;-62
2024/03/17 07:00:17;;;;;;;1.73;1.55;;;;;;;19.93;60.92;99394.00;5090470;28;20099;-62
2024/03/17 07:02:43;;;;;;;1.40;1.30;;;;;;;20.88;55.80;99382.16;5074520;28;20020;-62
2024/03/17 07:05:15;;;;;;;2.45;1.63;;;;;;;20.87;58.65;99383.28;5088259;28;20176;-62
2024/03/17 07:07:45;;;;;;;4.32;1.60;;;;;;;19.56;58.48;99390.06;5097362;28;20036;-63
2024/03/17 07:10:12;;;;;;;2.17;1.77;;;;;;;20.93;56.00;99395.97;5095074;28;20024;-62
2024/03/17 07:12:41;;;;;;;2.42;1.70;;;;;;;20.44;56.80;99391.22;5108943;28;20058;-62
2024/03/17 07:15:08;;;;;;;2.70;2.17;;;;;;;20.28;54.81;99398.41;5088231;28;20052;-62
2024/03/17 07:17:34;;;;;;;2.90;2.30;;;;;;;21.61;53.82;99388.19;5095611;28;20064;-57
2024/03/17 07:19:59;;;;;;;4.78;2.35;;;;;;;21.39;53.16;99388.28;5092319;28;20038;-56
2024/03/17 07:22:28;;;;;;;3.83;2.70;;;;;;;20.42;52.48;99387.88;5077229;28;20020;-56
2024/03/17 07:24:56;;;;;;;5.63;2.50;;;;;;;21.26;53.11;99394.16;5100547;28;20380;-61
2024/03/17 07:27:22;;;;;;;4.05;2.67;;;;;;;21.32;53.23;99399.44;5098240;28;20062;-62
2024/03/17 07:29:49;;;;;;;5.90;2.17;;;;;;;21.41;53.66;99389.69;5106673;28;20098;-62
2024/03/17 07:32:14;;;;;;;4.75;3.03;;;;;;;19.93;57.51;99395.94;5093285;28;20020;-58
2024/03/17 07:34:39;;;;;;;4.78;3.20;;;;;;;20.80;57.60;99397.19;5094610;28;20513;-57
2024/03/17 07:37:05;;;;;;;6.07;3.30;;;;;;;20.62;57.26;99397.50;5099937;28;20054;-56
2024/03/17 07:39:34;;;;;;;5.05;3.67;;;;;;;20.34;58.53;99405.63;5095081;28;20387;-56
2024/03/17 07:42:01;;;;;;;7.38;4.00;;;;;;;19.79;57.95;99405.59;5076601;28;20039;-57
2024/03/17 07:44:33;;;;;;;4.53;3.58;;;;;;;20.73;56.00;99400.16;5084934;28;20381;-62
2024/03/17 07:47:06;;;;;;;6.03;3.72;;;;;;;22.21;54.18;99397.25;5100545;28;20027;-62
2024/03/17 07:49:32;;;;;;;5.07;3.40;;;;;;;22.05;53.24;99405.38;5099025;28;20050;-62
2024/03/17 07:51:58;;;;;;;4.35;3.10;;;;;;;20.89;56.52;99400.34;5090085;28;20059;-62
2024/03/17 07:54:24;;;;;;;4.63;3.28;;;;;;;19.56;59.38;99410.09;5071090;28;20455;-62
2024/03/17 07:56:50;;;;;;;6.15;3.55;;;;;;;18.90;62.26;99403.38;5107541;28;20030;-62
2024/03/17 07:59:17;;;;;;;6.97;3.30;;;;;;;19.96;62.71;99398.19;5090938;28;20386;-62
2024/03/17 08:01:43;;;;;;;3.90;2.72;;;;;;;21.21;58.50;99395.75;5093115;28;20078;-62
2024/03/17 08:04:11;;;;;;;5.93;3.47;;;;;;;23.24;55.34;99382.88;5097115;28;20106;-62
2024/03/17 08:06:44;;;;;;;4.00;2.47;;;;;;;23.17;54.74;99385.06;5102381;28;20019;-57
2024/03/17 08:09:09;;;;;;;4.72;3.08;;;;;;;23.73;51.72;99392.63;5092584;28;20061;-64
2024/03/17 08:11:36;;;;;;;3.03;2.50;;;;;;;23.62;51.21;99380.72;5095160;28;20396;-63
2024/03/17 08:14:05;;;;;;;4.72;2.95;;;;;;;22.04;54.75;99389.94;5090050;28;20074;-56
2024/03/17 08:16:31;;;;;;;3.03;2.65;;;;;;;22.34;54.55;99387.69;5091859;28;20023;-56
2024/03/17 08:18:57;;;;;;;3.50;2.70;;;;;;;21.51;55.80;99388.97;5091198;28;20043;-57
2024/03/17 08:21:22;;;;;;;5.65;3.17;;;;;;;19.69;61.80;99381.53;5091960;28;20363;-63
2024/03/17 08:23:48;;;;;;;6.53;2.90;;;;;;;19.11;66.90;99374.44;5093407;28;20367;-63
2024/03/17 08:26:15;;;;;;;5.18;2.90;;;;;;;19.18;69.29;99375.97;5090158;28;20028;-57
2024/03/17 08:28:41;;;;;;;3.55;2.80;;;;;;;20.03;67.66;99367.81;5095416;28;20026;-57
2024/03/17 08:31:07;;;;;;;3.90;2.80;;;;;;;20.07;66.82;99364.31;5089376;28;20035;-61
2024/03/17 08:33:33;;;;;;;5.25;3.00;;;;;;;20.73;66.79;99372.66;5099219;28;20035;-59
2024/03/17 08:35:59;;;;;;;3.83;2.95;;;;;;;20.04;67.04;99372.19;5098390;28;20032;-58
2024/03/17 08:38:25;;;;;;;5.70;3.20;;;;;;;19.22;74.68;99382.59;5090924;28;20502;-58
2024/03/17 08:40:52;;;;;;;4.20;3.00;;;;;;;18.88;76.88;99394.53;5089254;28;20040;-63
2024/03/17 08:43:18;;;;;;;5.45;3.38;;;;;;;18.28;83.73;99393.78;5092279;28;20028;-63
2024/03/17 08:45:45;;;;;;;4.07;3.17;;;;;;;17.83;98.92;99396.28;5096595;28;20028;-62
2024/03/17 08:48:10;;;;;;;5.10;3.45;;;;;;;17.82;100.00;99389.16;5096984;28;20016;-63
2024/03/17 08:50:36;;;;;;;4.22;3.13;;;;;;;17.92;100.00;99392.97;5092659;28;20486;-61
2024/03/17 08:53:02;;;;;;;3.90;3.10;;;;;;;17.40;100.00;99389.16;5087211;28;20031;-62
2024/03/17 08:55:27;;;;;;;4.18;3.10;;;;;;;16.94;100.00;99382.44;5096307;28;20043;-63
2024/03/17 08:57:53;;;;;;;4.95;3.13;;;;;;;17.99;100.00;99389.25;5087147;28;20499;-62
2024/03/17 09:00:18;;;;;;;7.60;2.88;;;;;;;17.85;100.00;99392.25;5073930;28;20020;-64
2024/03/17 09:02:44;;;;;;;5.90;3.47;;;;;;;16.62;100.00;99390.78;5087158;28;20024;-62
2024/03/17 09:05:09;;;;;;;4.95;3.00;;;;;;;15.95;100.00;99385.19;5082265;28;20028;-59
2024/03/17 09:07:35;;;;;;;5.30;3.42;;;;;;;16.63;100.00;99385.06;5102574;28;20046;-58
2024/03/17 09:10:00;;;;;;;5.35;2.83;;;;;;;17.93;100.00;99369.97;5093691;28;20024;-61
2024/03/17 09:12:27;;;;;;;5.20;3.08;;;;;;;19.05;100.00;99384.47;5070148;28;20028;-63
2024/03/17 09:14:52;;;;;;;4.75;3.10;;;;;;;19.92;82.62;99373.13;5099522;28;20100;-62
2024/03/17 09:17:20;;;;;;;4.88;3.40;;;;;;;20.78;78.48;99367.22;5058399;28;20491;-62
2024/03/17 09:19:46;;;;;;;5.18;3.00;;;;;;;20.27;77.33;99365.69;5091209;28;20026;-61
2024/03/17 09:22:11;;;;;;;5.78;3.30;;;;;;;20.72;77.23;99365.50;5092764;28;20028;-57
2024/03/17 09:24:36;;;;;;;4.55;3.83;;;;;;;19.87;76.18;99364.81;5091097;28;20019;-63
2024/03/17 09:27:05;;;;;;;4.70;3.55;;;;;;;19.95;77.85;99358.06;5094349;28;20110;-58
2024/03/17 09:29:30;;;;;;;9.13;3.33;;;;;;;19.96;77.57;99369.88;5082089;28;20029;-57
2024/03/17 09:31:56;;;;;;;3.95;3.00;;;;;;;;;;5084020;28;20027;-57
2024/03/17 09:34:22;;;;;;;5.38;3.20;;;;;;;22.78;67.39;99344.06;5085548;28;20581;-57
2024/03/17 09:36:47;;;;;;;4.13;3.00;;;;;;;22.40;68.79;99346.13;5085850;28;20036;-62
2024/03/17 09:39:14;;;;;;;5.25;2.90;;;;;;;21.97;70.35;99345.25;5086094;28;20024;-63
2024/03/17 09:41:40;;;;;;;4.45;3.15;;;;;;;22.37;69.03;99352.13;5085851;28;20024;-65
2024/03/17 09:44:06;;;;;;;4.60;3.17;;;;;;;23.13;65.92;99339.75;5089352;28;20076;-63
2024/03/17 09:46:34;;;;;;;5.43;2.97;;;;;;;21.48;70.68;99361.94;5094067;28;20120;-62
2024/03/17 09:48:59;;;;;;;4.00;3.00;;;;;;;20.39;72.41;99351.84;5096719;28;20039;-63
2024/03/17 09:51:25;;;;;;;4.07;2.78;;;;;;;20.44;75.76;99351.91;5094232;28;20032;-62
2024/03/17 09:53:51;;;;;;;4.45;2.97;;;;;;;21.13;77.39;99343.13;5085858;28;20119;-60
2024/03/17 09:56:19;;;;;;;3.38;2.85;;;;;;;20.42;76.05;99346.66;5091989;28;20063;-57
2024/03/17 09:58:51;;;;;;;4.18;3.28;;;;;;;20.14;81.71;99348.47;5089026;28;20025;-57
2024/03/17 10:01:18;;;;;;;5.97;3.10;;;;;;;19.64;80.83;99345.75;5093508;28;20043;-57
2024/03/17 10:06:50;;;;;;;4.32;3.03;;;;;;;19.56;82.97;99351.66;5031563;28;20092;-62
2024/03/17 10:09:23;;;;;;;4.57;3.20;;;;;;;19.60;81.84;99359.13;5093719;28;20115;-62
2024/03/17 10:11:50;;;;;;;6.55;3.20;;;;;;;20.70;80.03;99351.19;5085776;28;20028;-63
2024/03/17 10:14:17;;;;;;;6.18;2.97;;;;;;;21.80;76.05;99339.09;5083713;28;20495;-62
2024/03/17 10:16:46;;;;;;;3.58;2.67;;;;;;;22.51;71.83;99342.28;5089241;28;20058;-63
2024/03/17 10:19:30;;;;;;;5.85;2.97;;;;;;;22.79;67.96;99337.44;5082827;28;20361;-63
2024/03/17 10:22:01;;;;;;;5.75;3.20;;;;;;;23.47;65.71;99344.78;5086301;28;20107;-63
2024/03/17 10:24:28;;;;;;;6.03;2.92;;;;;;;23.97;63.44;99337.63;5097590;28;20020;-63
2024/03/17 10:27:02;;;;;;;4.70;2.50;;;;;;;24.47;60.74;99322.03;5073813;28;20020;-64
2024/03/17 10:29:30;;;;;;;4.05;2.40;;;;;;;23.66;58.18;99332.09;5092890;28;20081;-64
2024/03/17 10:32:18;;;;;;;4.78;2.50;;;;;;;24.13;56.44;99336.50;5093853;28;20463;-64
2024/03/17 10:34:44;;;;;;;5.13;2.70;;;;;;;24.53;54.55;99323.69;5092699;28;20077;-60
2024/03/17 10:37:14;;;;;;;5.50;2.50;;;;;;;24.27;57.11;99332.03;5074345;28;20024;-63
2024/03/17 10:39:43;;;;;;;5.78;2.42;;;;;;;24.89;55.54;99335.44;5089816;28;20035;-64
2024/03/17 10:42:11;;;;;;;4.32;2.75;;;;;;;23.89;56.16;99346.47;5091382;28;20029;-60
2024/03/17 10:44:39;;;;;;;3.17;2.30;;;;;;;22.05;56.48;99341.16;5097663;28;20020;-60
2024/03/17 10:47:12;;;;;;;4.88;2.42;;;;;;;20.51;58.12;99342.41;5095957;28;20035;-64
2024/03/17 10:49:38;;;;;;;4.40;2.63;;;;;;;20.75;62.62;99336.63;5090750;28;20123;-64
2024/03/17 10:52:17;;;;;;;3.42;2.10;;;;;;;21.30;57.70;99352.13;5096746;28;20024;-57
2024/03/17 10:54:52;;;;;;;3.72;2.60;;;;;;;21.55;57.90;99353.47;5108669;28;20016;-59
2024/03/17 10:57:32;;;;;;;3.90;2.00;;;;;;;22.06;55.54;99346.44;5093673;28;20026;-57
2024/03/17 10:59:59;;;;;;;3.22;2.10;;;;;;;22.93;53.70;99344.13;5094915;28;20032;-57
2024/03/17 11:02:32;;;;;;;3.15;1.80;;;;;;;23.13;53.53;99337.84;5090389;28;20024;-58
2024/03/17 11:05:00;;;;;;;3.50;2.20;;;;;;;22.40;52.49;99343.34;5085907;28;20048;-59
2024/03/17 11:07:26;;;;;;;3.78;2.05;;;;;;;23.54;52.17;99335.13;5092065;28;20036;-59
2024/03/17 11:09:55;;;;;;;3.80;1.60;;;;;;;25.39;49.14;99335.44;5108143;28;20019;-59
2024/03/17 11:12:44;;;;;;;3.05;1.52;;;;;;;25.48;47.31;99339.22;5097359;28;20115;-59
2024/03/17 11:15:33;;;;;;;4.15;1.90;;;;;;;25.26;47.01;99341.63;5090352;28;20038;-63
2024/03/17 11:18:08;;;;;;;4.60;2.10;;;;;;;24.01;48.60;99338.72;5076624;28;20375;-63
2024/03/17 11:20:35;;;;;;;3.40;1.80;;;;;;;23.96;49.89;99344.25;5092961;28;20031;-63
2024/03/17 11:23:01;;;;;;;3.97;1.85;;;;;;;24.34;50.14;99337.28;5100075;28;20107;-63
2024/03/17 11:25:26;;;;;;;4.40;2.38;;;;;;;23.02;51.25;99324.28;5090493;28;20028;-63
2024/03/17 11:27:58;;;;;;;4.65;2.50;;;;;;;22.53;51.55;99319.94;5069927;28;20032;-63
2024/03/17 11:33:30;;;;;;;3.47;2.10;;;;;;;23.46;50.39;99315.53;5102051;28;20498;-59
2024/03/17 11:36:20;;;;;;;3.47;2.20;;;;;;;24.67;48.39;99308.13;5092187;28;20028;-64
2024/03/17 11:38:55;;;;;;;4.13;2.38;;;;;;;25.27;45.28;99304.50;5088798;28;20020;-73
2024/03/17 11:41:41;;;;;;;3.75;2.20;;;;;;;24.92;46.73;99304.41;5089556;28;20016;-58
2024/03/17 11:44:31;;;;;;;3.42;2.25;;;;;;;25.25;45.72;99306.72;5097330;28;20059;-64
2024/03/17 11:47:00;;;;;;;3.22;2.00;;;;;;;26.22;45.52;99303.09;5095634;28;20028;-63
2024/03/17 11:49:37;;;;;;;4.63;2.58;;;;;;;26.02;45.14;99282.78;5078921;22;20108;-78
2024/03/17 11:52:04;;;;;;;4.38;2.38;;;;;;;24.45;46.86;99283.63;5072561;28;20254;-76
2024/03/17 11:54:32;;;;;;;3.85;2.30;;;;;;;23.69;47.57;99287.34;5049434;28;20024;-76
2024/03/17 11:57:25;;;;;;;5.15;2.50;;;;;;;23.07;50.85;99280.16;5062472;28;20270;-77